Аэропорт: Чертовицкое. Воронеж

ICAO: UUOO

METAR:
2019/01/21 23:00
UUOO 212300Z 27004MPS 8000 NSC M11/M13 Q1015 R30/820247 NOSIG RMK QFE748
METAR:
2018/12/04 17:51
TAF 
      AMD TAF 
      AMD UUOO 041549Z 0417/0524 14004MPS 0600 FZFG VV002 
      TEMPO 0418/0421 1400 FZDZ BR VV002